Terminal Aerodrome Forecast
Issued by NWS New Orleans/Baton Rouge, LA

Home | Current Version | Previous Version | Text Only | Print | Product List | Glossary On
Versions: 1 2 3 4 5 6 7 8 9 10 11 12 13 14 15 16 17 18 19 20 21 22 23 24 25
000
FTUS44 KLIX 302320
TAFNEW
TAF
KNEW 302320Z 3100/3124 08003KT P6SM SCT050
     FM311000 22004KT 4SM BR SCT008
     FM311500 22006KT P6SM SCT250
     FM311900 24011KT P6SM BKN100=

USA.gov is the U.S. government's official web portal to all federal, state and local government web resources and services.